Arbuckle, West Virginia
Current Conditions -  °F | °C
As of 9:15 PM on Friday 31 Oct 2014 (Local Time) from K3I2 Reporting Station
Light Rain Light Rain  
Wind Chill:   Ceiling: 1100
Heat Index:   Visibility: 7mi
Dew Point:   Wind: 3mph
Humidity: 93%   Direction: 300°WNW
Pressure: 29.91"   Gusts: NA
Location:  38.7463°N, 81.8897°W
Report Text: K3I2 010115Z AUTO 30003KT 7SM -RA OVC011 06/05 A2991 RMK AO2
Loading
Personal Weather Stations






























Interactive Weather Map
Tropical Storm Tracking
New forecast layout! Learn more

10-Day Weather Forecast

Advertisements
Track Severe Weather on mobile